sensor_id;sensor_type;location;lat;lon;timestamp;P1;durP1;ratioP1;P2;durP2;ratioP2
69240;SDS011;56352;55.750;13.198;2023-07-20T00:01:50;1.20;;;0.90;;
69240;SDS011;56352;55.750;13.198;2023-07-20T00:04:17;2.58;;;0.80;;
69240;SDS011;56352;55.750;13.198;2023-07-20T00:06:43;3.00;;;1.00;;
69240;SDS011;56352;55.750;13.198;2023-07-20T00:09:10;3.83;;;1.45;;
69240;SDS011;56352;55.750;13.198;2023-07-20T00:11:37;3.10;;;0.77;;
69240;SDS011;56352;55.750;13.198;2023-07-20T00:14:06;1.08;;;0.80;;
69240;SDS011;56352;55.750;13.198;2023-07-20T00:16:32;2.28;;;0.90;;
69240;SDS011;56352;55.750;13.198;2023-07-20T00:18:59;1.70;;;1.00;;
69240;SDS011;56352;55.750;13.198;2023-07-20T00:21:26;1.40;;;0.82;;
69240;SDS011;56352;55.750;13.198;2023-07-20T00:23:52;1.70;;;0.93;;
69240;SDS011;56352;55.750;13.198;2023-07-20T00:26:19;1.17;;;0.98;;
69240;SDS011;56352;55.750;13.198;2023-07-20T00:28:46;1.80;;;0.73;;
69240;SDS011;56352;55.750;13.198;2023-07-20T00:31:13;1.50;;;1.00;;
69240;SDS011;56352;55.750;13.198;2023-07-20T00:33:39;2.03;;;0.98;;
69240;SDS011;56352;55.750;13.198;2023-07-20T00:36:06;2.22;;;0.80;;
69240;SDS011;56352;55.750;13.198;2023-07-20T00:38:32;1.35;;;0.82;;
69240;SDS011;56352;55.750;13.198;2023-07-20T00:40:59;2.05;;;0.90;;
69240;SDS011;56352;55.750;13.198;2023-07-20T00:43:25;1.77;;;0.90;;
69240;SDS011;56352;55.750;13.198;2023-07-20T00:45:52;2.83;;;0.90;;
69240;SDS011;56352;55.750;13.198;2023-07-20T00:48:19;2.65;;;1.08;;
69240;SDS011;56352;55.750;13.198;2023-07-20T00:50:46;1.25;;;0.80;;
69240;SDS011;56352;55.750;13.198;2023-07-20T00:53:13;1.23;;;1.00;;
69240;SDS011;56352;55.750;13.198;2023-07-20T00:55:39;1.85;;;0.85;;
69240;SDS011;56352;55.750;13.198;2023-07-20T00:58:06;3.40;;;0.90;;
69240;SDS011;56352;55.750;13.198;2023-07-20T01:00:33;2.15;;;0.70;;
69240;SDS011;56352;55.750;13.198;2023-07-20T01:02:59;1.20;;;0.90;;
69240;SDS011;56352;55.750;13.198;2023-07-20T01:05:30;1.42;;;0.88;;
69240;SDS011;56352;55.750;13.198;2023-07-20T01:08:03;1.42;;;0.90;;
69240;SDS011;56352;55.750;13.198;2023-07-20T01:10:39;1.00;;;0.82;;
69240;SDS011;56352;55.750;13.198;2023-07-20T01:13:07;3.08;;;1.00;;
69240;SDS011;56352;55.750;13.198;2023-07-20T01:15:35;2.17;;;1.10;;
69240;SDS011;56352;55.750;13.198;2023-07-20T01:18:02;1.33;;;0.77;;
69240;SDS011;56352;55.750;13.198;2023-07-20T01:20:31;3.30;;;1.13;;
69240;SDS011;56352;55.750;13.198;2023-07-20T01:25:45;3.15;;;1.00;;
69240;SDS011;56352;55.750;13.198;2023-07-20T01:30:57;3.08;;;1.20;;
69240;SDS011;56352;55.750;13.198;2023-07-20T01:33:26;3.15;;;1.00;;
69240;SDS011;56352;55.750;13.198;2023-07-20T01:35:54;2.65;;;1.20;;
69240;SDS011;56352;55.750;13.198;2023-07-20T01:38:21;1.52;;;1.17;;
69240;SDS011;56352;55.750;13.198;2023-07-20T01:40:48;2.15;;;1.10;;
69240;SDS011;56352;55.750;13.198;2023-07-20T01:43:15;4.50;;;2.10;;
69240;SDS011;56352;55.750;13.198;2023-07-20T01:45:42;1.67;;;1.48;;
69240;SDS011;56352;55.750;13.198;2023-07-20T01:48:09;3.00;;;1.45;;
69240;SDS011;56352;55.750;13.198;2023-07-20T01:50:36;2.40;;;1.30;;
69240;SDS011;56352;55.750;13.198;2023-07-20T01:53:02;2.40;;;1.30;;
69240;SDS011;56352;55.750;13.198;2023-07-20T01:55:29;1.77;;;1.38;;
69240;SDS011;56352;55.750;13.198;2023-07-20T01:57:55;2.90;;;0.98;;
69240;SDS011;56352;55.750;13.198;2023-07-20T02:00:22;1.60;;;1.30;;
69240;SDS011;56352;55.750;13.198;2023-07-20T02:02:50;2.88;;;1.33;;
69240;SDS011;56352;55.750;13.198;2023-07-20T02:05:17;1.98;;;1.20;;
69240;SDS011;56352;55.750;13.198;2023-07-20T02:07:44;2.60;;;1.38;;
69240;SDS011;56352;55.750;13.198;2023-07-20T02:10:10;1.67;;;1.15;;
69240;SDS011;56352;55.750;13.198;2023-07-20T02:12:37;4.68;;;1.27;;
69240;SDS011;56352;55.750;13.198;2023-07-20T02:15:03;2.63;;;1.10;;
69240;SDS011;56352;55.750;13.198;2023-07-20T02:17:30;2.55;;;1.27;;
69240;SDS011;56352;55.750;13.198;2023-07-20T02:19:56;3.30;;;1.05;;
69240;SDS011;56352;55.750;13.198;2023-07-20T02:24:52;2.80;;;1.05;;
69240;SDS011;56352;55.750;13.198;2023-07-20T02:27:19;1.52;;;1.00;;
69240;SDS011;56352;55.750;13.198;2023-07-20T02:29:46;3.15;;;1.33;;
69240;SDS011;56352;55.750;13.198;2023-07-20T02:32:12;3.20;;;1.35;;
69240;SDS011;56352;55.750;13.198;2023-07-20T02:34:39;2.20;;;1.30;;
69240;SDS011;56352;55.750;13.198;2023-07-20T02:37:05;1.20;;;1.08;;
69240;SDS011;56352;55.750;13.198;2023-07-20T02:39:33;4.30;;;1.20;;
69240;SDS011;56352;55.750;13.198;2023-07-20T02:41:59;3.60;;;1.23;;
69240;SDS011;56352;55.750;13.198;2023-07-20T02:44:26;2.63;;;1.30;;
69240;SDS011;56352;55.750;13.198;2023-07-20T02:46:52;2.90;;;1.60;;
69240;SDS011;56352;55.750;13.198;2023-07-20T02:49:19;2.17;;;1.10;;
69240;SDS011;56352;55.750;13.198;2023-07-20T02:51:49;3.28;;;1.75;;
69240;SDS011;56352;55.750;13.198;2023-07-20T02:54:20;2.38;;;1.20;;
69240;SDS011;56352;55.750;13.198;2023-07-20T02:56:47;2.33;;;1.10;;
69240;SDS011;56352;55.750;13.198;2023-07-20T02:59:13;2.50;;;1.00;;
69240;SDS011;56352;55.750;13.198;2023-07-20T03:01:40;1.20;;;1.10;;
69240;SDS011;56352;55.750;13.198;2023-07-20T03:04:08;3.05;;;1.00;;
69240;SDS011;56352;55.750;13.198;2023-07-20T03:06:36;2.55;;;1.02;;
69240;SDS011;56352;55.750;13.198;2023-07-20T03:09:03;2.83;;;1.00;;
69240;SDS011;56352;55.750;13.198;2023-07-20T03:11:30;2.72;;;1.00;;
69240;SDS011;56352;55.750;13.198;2023-07-20T03:13:56;3.08;;;0.98;;
69240;SDS011;56352;55.750;13.198;2023-07-20T03:16:23;2.10;;;1.00;;
69240;SDS011;56352;55.750;13.198;2023-07-20T03:18:51;2.92;;;1.00;;
69240;SDS011;56352;55.750;13.198;2023-07-20T03:21:18;3.55;;;1.15;;
69240;SDS011;56352;55.750;13.198;2023-07-20T03:23:44;2.20;;;1.10;;
69240;SDS011;56352;55.750;13.198;2023-07-20T03:26:11;1.45;;;1.15;;
69240;SDS011;56352;55.750;13.198;2023-07-20T03:28:38;2.22;;;0.90;;
69240;SDS011;56352;55.750;13.198;2023-07-20T03:31:05;2.17;;;1.08;;
69240;SDS011;56352;55.750;13.198;2023-07-20T03:33:32;1.08;;;0.90;;
69240;SDS011;56352;55.750;13.198;2023-07-20T03:35:58;1.65;;;0.90;;
69240;SDS011;56352;55.750;13.198;2023-07-20T03:38:25;1.85;;;0.95;;
69240;SDS011;56352;55.750;13.198;2023-07-20T03:40:56;1.98;;;1.10;;
69240;SDS011;56352;55.750;13.198;2023-07-20T03:43:23;4.22;;;1.20;;
69240;SDS011;56352;55.750;13.198;2023-07-20T03:45:50;1.30;;;0.90;;
69240;SDS011;56352;55.750;13.198;2023-07-20T03:48:18;2.05;;;0.80;;
69240;SDS011;56352;55.750;13.198;2023-07-20T03:50:45;3.70;;;1.48;;
69240;SDS011;56352;55.750;13.198;2023-07-20T03:53:12;2.53;;;0.95;;
69240;SDS011;56352;55.750;13.198;2023-07-20T03:55:39;2.03;;;1.27;;
69240;SDS011;56352;55.750;13.198;2023-07-20T03:58:09;2.92;;;1.25;;
69240;SDS011;56352;55.750;13.198;2023-07-20T04:03:02;3.17;;;1.00;;
69240;SDS011;56352;55.750;13.198;2023-07-20T04:05:29;2.00;;;1.20;;
69240;SDS011;56352;55.750;13.198;2023-07-20T04:07:55;1.52;;;0.90;;
69240;SDS011;56352;55.750;13.198;2023-07-20T04:10:22;2.97;;;1.13;;
69240;SDS011;56352;55.750;13.198;2023-07-20T04:12:48;2.35;;;1.00;;
69240;SDS011;56352;55.750;13.198;2023-07-20T04:15:15;5.38;;;1.50;;
69240;SDS011;56352;55.750;13.198;2023-07-20T04:17:41;4.22;;;1.10;;
69240;SDS011;56352;55.750;13.198;2023-07-20T04:20:08;0.90;;;0.90;;
69240;SDS011;56352;55.750;13.198;2023-07-20T04:22:35;4.32;;;1.67;;
69240;SDS011;56352;55.750;13.198;2023-07-20T04:25:02;3.50;;;0.90;;
69240;SDS011;56352;55.750;13.198;2023-07-20T04:27:29;2.15;;;1.10;;
69240;SDS011;56352;55.750;13.198;2023-07-20T04:29:56;1.73;;;1.10;;
69240;SDS011;56352;55.750;13.198;2023-07-20T04:32:22;2.80;;;1.00;;
69240;SDS011;56352;55.750;13.198;2023-07-20T04:34:49;2.28;;;1.20;;
69240;SDS011;56352;55.750;13.198;2023-07-20T04:37:15;3.75;;;1.02;;
69240;SDS011;56352;55.750;13.198;2023-07-20T04:39:42;2.92;;;1.25;;
69240;SDS011;56352;55.750;13.198;2023-07-20T04:42:08;2.70;;;1.02;;
69240;SDS011;56352;55.750;13.198;2023-07-20T04:44:35;2.55;;;1.02;;
69240;SDS011;56352;55.750;13.198;2023-07-20T04:47:01;1.65;;;0.88;;
69240;SDS011;56352;55.750;13.198;2023-07-20T04:49:29;1.25;;;0.82;;
69240;SDS011;56352;55.750;13.198;2023-07-20T04:51:55;1.90;;;0.93;;
69240;SDS011;56352;55.750;13.198;2023-07-20T04:54:22;2.67;;;1.15;;
69240;SDS011;56352;55.750;13.198;2023-07-20T04:56:49;3.78;;;0.90;;
69240;SDS011;56352;55.750;13.198;2023-07-20T04:59:16;1.88;;;0.80;;
69240;SDS011;56352;55.750;13.198;2023-07-20T05:01:43;5.90;;;1.25;;
69240;SDS011;56352;55.750;13.198;2023-07-20T05:04:10;2.17;;;1.00;;
69240;SDS011;56352;55.750;13.198;2023-07-20T05:06:36;0.95;;;0.80;;
69240;SDS011;56352;55.750;13.198;2023-07-20T05:09:05;5.13;;;1.20;;
69240;SDS011;56352;55.750;13.198;2023-07-20T05:11:33;1.75;;;0.88;;
69240;SDS011;56352;55.750;13.198;2023-07-20T05:14:00;2.00;;;1.10;;
69240;SDS011;56352;55.750;13.198;2023-07-20T05:16:27;1.27;;;0.93;;
69240;SDS011;56352;55.750;13.198;2023-07-20T05:18:53;3.45;;;1.08;;
69240;SDS011;56352;55.750;13.198;2023-07-20T05:21:19;2.38;;;1.40;;
69240;SDS011;56352;55.750;13.198;2023-07-20T05:23:46;1.73;;;1.20;;
69240;SDS011;56352;55.750;13.198;2023-07-20T05:26:13;2.15;;;1.38;;
69240;SDS011;56352;55.750;13.198;2023-07-20T05:28:39;2.88;;;1.40;;
69240;SDS011;56352;55.750;13.198;2023-07-20T05:31:06;5.97;;;1.50;;
69240;SDS011;56352;55.750;13.198;2023-07-20T05:33:33;3.30;;;1.60;;
69240;SDS011;56352;55.750;13.198;2023-07-20T05:35:59;4.20;;;1.42;;
69240;SDS011;56352;55.750;13.198;2023-07-20T05:38:34;2.70;;;1.38;;
69240;SDS011;56352;55.750;13.198;2023-07-20T05:41:00;2.40;;;1.65;;
69240;SDS011;56352;55.750;13.198;2023-07-20T05:43:28;4.45;;;1.88;;
69240;SDS011;56352;55.750;13.198;2023-07-20T05:45:54;3.35;;;1.70;;
69240;SDS011;56352;55.750;13.198;2023-07-20T05:48:21;2.53;;;1.65;;
69240;SDS011;56352;55.750;13.198;2023-07-20T05:50:47;4.10;;;1.98;;
69240;SDS011;56352;55.750;13.198;2023-07-20T05:53:14;5.22;;;1.80;;
69240;SDS011;56352;55.750;13.198;2023-07-20T05:55:40;4.57;;;1.77;;
69240;SDS011;56352;55.750;13.198;2023-07-20T05:58:07;3.47;;;1.73;;
69240;SDS011;56352;55.750;13.198;2023-07-20T06:00:34;4.57;;;1.58;;
69240;SDS011;56352;55.750;13.198;2023-07-20T06:03:00;3.58;;;2.08;;
69240;SDS011;56352;55.750;13.198;2023-07-20T06:05:27;5.10;;;2.15;;
69240;SDS011;56352;55.750;13.198;2023-07-20T06:07:54;5.80;;;2.40;;
69240;SDS011;56352;55.750;13.198;2023-07-20T06:10:21;3.58;;;1.90;;
69240;SDS011;56352;55.750;13.198;2023-07-20T06:12:48;4.63;;;2.20;;
69240;SDS011;56352;55.750;13.198;2023-07-20T06:15:27;3.60;;;2.00;;
69240;SDS011;56352;55.750;13.198;2023-07-20T06:17:54;4.00;;;2.20;;
69240;SDS011;56352;55.750;13.198;2023-07-20T06:20:22;4.78;;;2.13;;
69240;SDS011;56352;55.750;13.198;2023-07-20T06:22:48;4.70;;;2.33;;
69240;SDS011;56352;55.750;13.198;2023-07-20T06:25:15;4.47;;;2.20;;
69240;SDS011;56352;55.750;13.198;2023-07-20T06:27:42;5.97;;;2.10;;
69240;SDS011;56352;55.750;13.198;2023-07-20T06:30:08;3.75;;;2.30;;
69240;SDS011;56352;55.750;13.198;2023-07-20T06:32:35;5.80;;;2.30;;
69240;SDS011;56352;55.750;13.198;2023-07-20T06:35:02;5.20;;;1.92;;
69240;SDS011;56352;55.750;13.198;2023-07-20T06:37:29;4.68;;;1.80;;
69240;SDS011;56352;55.750;13.198;2023-07-20T06:39:55;3.95;;;1.80;;
69240;SDS011;56352;55.750;13.198;2023-07-20T06:42:24;4.82;;;2.00;;
69240;SDS011;56352;55.750;13.198;2023-07-20T06:45:11;4.50;;;1.90;;
69240;SDS011;56352;55.750;13.198;2023-07-20T06:47:41;3.05;;;2.08;;
69240;SDS011;56352;55.750;13.198;2023-07-20T06:50:08;2.75;;;1.77;;
69240;SDS011;56352;55.750;13.198;2023-07-20T06:52:35;6.82;;;1.92;;
69240;SDS011;56352;55.750;13.198;2023-07-20T06:55:01;4.15;;;2.03;;
69240;SDS011;56352;55.750;13.198;2023-07-20T06:57:31;4.57;;;2.05;;
69240;SDS011;56352;55.750;13.198;2023-07-20T06:59:58;7.68;;;2.35;;
69240;SDS011;56352;55.750;13.198;2023-07-20T07:02:24;5.82;;;2.28;;
69240;SDS011;56352;55.750;13.198;2023-07-20T07:04:51;4.13;;;2.15;;
69240;SDS011;56352;55.750;13.198;2023-07-20T07:07:26;3.92;;;1.85;;
69240;SDS011;56352;55.750;13.198;2023-07-20T07:09:53;3.30;;;2.13;;
69240;SDS011;56352;55.750;13.198;2023-07-20T07:12:19;4.97;;;1.70;;
69240;SDS011;56352;55.750;13.198;2023-07-20T07:14:46;2.30;;;1.55;;
69240;SDS011;56352;55.750;13.198;2023-07-20T07:17:12;3.72;;;1.75;;
69240;SDS011;56352;55.750;13.198;2023-07-20T07:19:45;3.13;;;1.45;;
69240;SDS011;56352;55.750;13.198;2023-07-20T07:22:14;6.00;;;1.90;;
69240;SDS011;56352;55.750;13.198;2023-07-20T07:24:41;3.70;;;1.80;;
69240;SDS011;56352;55.750;13.198;2023-07-20T07:27:08;4.10;;;1.70;;
69240;SDS011;56352;55.750;13.198;2023-07-20T07:29:35;4.50;;;1.75;;
69240;SDS011;56352;55.750;13.198;2023-07-20T07:32:02;2.70;;;1.58;;
69240;SDS011;56352;55.750;13.198;2023-07-20T07:34:28;3.15;;;1.48;;
69240;SDS011;56352;55.750;13.198;2023-07-20T07:36:55;3.25;;;1.60;;
69240;SDS011;56352;55.750;13.198;2023-07-20T07:39:25;3.65;;;1.70;;
69240;SDS011;56352;55.750;13.198;2023-07-20T07:42:00;2.63;;;1.60;;
69240;SDS011;56352;55.750;13.198;2023-07-20T07:44:27;2.65;;;1.58;;
69240;SDS011;56352;55.750;13.198;2023-07-20T07:46:54;2.63;;;1.60;;
69240;SDS011;56352;55.750;13.198;2023-07-20T07:49:21;2.40;;;1.40;;
69240;SDS011;56352;55.750;13.198;2023-07-20T07:51:47;4.47;;;1.90;;
69240;SDS011;56352;55.750;13.198;2023-07-20T07:54:14;3.95;;;1.38;;
69240;SDS011;56352;55.750;13.198;2023-07-20T07:56:41;3.35;;;1.48;;
69240;SDS011;56352;55.750;13.198;2023-07-20T07:59:08;3.13;;;1.70;;
69240;SDS011;56352;55.750;13.198;2023-07-20T08:01:35;5.00;;;1.45;;
69240;SDS011;56352;55.750;13.198;2023-07-20T08:04:01;4.57;;;1.80;;
69240;SDS011;56352;55.750;13.198;2023-07-20T08:06:28;3.38;;;1.70;;
69240;SDS011;56352;55.750;13.198;2023-07-20T08:08:54;4.82;;;1.90;;
69240;SDS011;56352;55.750;13.198;2023-07-20T08:11:21;6.03;;;1.63;;
69240;SDS011;56352;55.750;13.198;2023-07-20T08:13:47;4.28;;;1.70;;
69240;SDS011;56352;55.750;13.198;2023-07-20T08:16:14;4.78;;;1.67;;
69240;SDS011;56352;55.750;13.198;2023-07-20T08:18:40;3.17;;;1.65;;
69240;SDS011;56352;55.750;13.198;2023-07-20T08:21:07;4.82;;;2.08;;
69240;SDS011;56352;55.750;13.198;2023-07-20T08:23:34;6.15;;;2.03;;
69240;SDS011;56352;55.750;13.198;2023-07-20T08:26:03;3.85;;;1.45;;
69240;SDS011;56352;55.750;13.198;2023-07-20T08:28:30;3.50;;;1.52;;
69240;SDS011;56352;55.750;13.198;2023-07-20T08:30:57;2.72;;;1.67;;
69240;SDS011;56352;55.750;13.198;2023-07-20T08:33:24;5.97;;;2.00;;
69240;SDS011;56352;55.750;13.198;2023-07-20T08:35:50;4.75;;;1.65;;
69240;SDS011;56352;55.750;13.198;2023-07-20T08:38:17;4.38;;;1.55;;
69240;SDS011;56352;55.750;13.198;2023-07-20T08:40:46;2.08;;;1.27;;
69240;SDS011;56352;55.750;13.198;2023-07-20T08:43:14;3.45;;;1.27;;
69240;SDS011;56352;55.750;13.198;2023-07-20T08:45:43;5.22;;;1.25;;
69240;SDS011;56352;55.750;13.198;2023-07-20T08:48:11;3.47;;;1.23;;
69240;SDS011;56352;55.750;13.198;2023-07-20T08:50:38;1.85;;;1.00;;
69240;SDS011;56352;55.750;13.198;2023-07-20T08:53:04;2.13;;;1.17;;
69240;SDS011;56352;55.750;13.198;2023-07-20T08:55:32;3.50;;;1.48;;
69240;SDS011;56352;55.750;13.198;2023-07-20T08:57:59;3.00;;;1.40;;
69240;SDS011;56352;55.750;13.198;2023-07-20T09:00:26;4.40;;;1.35;;
69240;SDS011;56352;55.750;13.198;2023-07-20T09:02:54;3.42;;;1.63;;
69240;SDS011;56352;55.750;13.198;2023-07-20T09:05:22;4.78;;;1.55;;
69240;SDS011;56352;55.750;13.198;2023-07-20T09:07:50;5.93;;;1.50;;
69240;SDS011;56352;55.750;13.198;2023-07-20T09:10:17;3.28;;;1.50;;
69240;SDS011;56352;55.750;13.198;2023-07-20T09:12:43;2.40;;;1.33;;
69240;SDS011;56352;55.750;13.198;2023-07-20T09:15:10;3.33;;;1.30;;
69240;SDS011;56352;55.750;13.198;2023-07-20T09:17:37;3.53;;;1.35;;
69240;SDS011;56352;55.750;13.198;2023-07-20T09:20:07;3.85;;;1.35;;
69240;SDS011;56352;55.750;13.198;2023-07-20T09:22:37;4.03;;;1.08;;
69240;SDS011;56352;55.750;13.198;2023-07-20T09:25:08;2.33;;;1.27;;
69240;SDS011;56352;55.750;13.198;2023-07-20T09:27:40;6.53;;;1.67;;
69240;SDS011;56352;55.750;13.198;2023-07-20T09:30:09;4.75;;;1.30;;
69240;SDS011;56352;55.750;13.198;2023-07-20T09:32:44;5.03;;;1.30;;
69240;SDS011;56352;55.750;13.198;2023-07-20T09:35:14;2.15;;;0.93;;
69240;SDS011;56352;55.750;13.198;2023-07-20T09:40:15;2.42;;;0.95;;
69240;SDS011;56352;55.750;13.198;2023-07-20T09:42:42;1.85;;;1.00;;
69240;SDS011;56352;55.750;13.198;2023-07-20T09:45:50;2.17;;;1.00;;
69240;SDS011;56352;55.750;13.198;2023-07-20T09:48:18;2.38;;;0.70;;
69240;SDS011;56352;55.750;13.198;2023-07-20T09:50:53;2.75;;;0.88;;
69240;SDS011;56352;55.750;13.198;2023-07-20T09:53:20;2.90;;;1.08;;
69240;SDS011;56352;55.750;13.198;2023-07-20T09:55:47;2.25;;;0.77;;
69240;SDS011;56352;55.750;13.198;2023-07-20T09:58:15;3.15;;;0.82;;
69240;SDS011;56352;55.750;13.198;2023-07-20T10:00:42;3.60;;;1.15;;
69240;SDS011;56352;55.750;13.198;2023-07-20T10:03:19;3.42;;;0.98;;
69240;SDS011;56352;55.750;13.198;2023-07-20T10:05:47;4.13;;;1.00;;
69240;SDS011;56352;55.750;13.198;2023-07-20T10:08:15;1.98;;;0.90;;
69240;SDS011;56352;55.750;13.198;2023-07-20T10:10:45;3.08;;;1.10;;
69240;SDS011;56352;55.750;13.198;2023-07-20T10:13:25;3.55;;;1.20;;
69240;SDS011;56352;55.750;13.198;2023-07-20T10:18:33;2.58;;;0.98;;
69240;SDS011;56352;55.750;13.198;2023-07-20T10:21:01;1.48;;;0.85;;
69240;SDS011;56352;55.750;13.198;2023-07-20T10:23:30;2.67;;;1.00;;
69240;SDS011;56352;55.750;13.198;2023-07-20T10:25:57;1.85;;;1.00;;
69240;SDS011;56352;55.750;13.198;2023-07-20T10:28:26;2.00;;;0.93;;
69240;SDS011;56352;55.750;13.198;2023-07-20T10:30:53;2.20;;;0.90;;
69240;SDS011;56352;55.750;13.198;2023-07-20T10:33:20;2.47;;;0.85;;
69240;SDS011;56352;55.750;13.198;2023-07-20T10:35:51;1.70;;;0.85;;
69240;SDS011;56352;55.750;13.198;2023-07-20T10:38:17;6.03;;;1.17;;
69240;SDS011;56352;55.750;13.198;2023-07-20T10:40:53;3.03;;;1.05;;
69240;SDS011;56352;55.750;13.198;2023-07-20T10:43:21;2.22;;;1.25;;
69240;SDS011;56352;55.750;13.198;2023-07-20T10:45:49;3.35;;;1.00;;
69240;SDS011;56352;55.750;13.198;2023-07-20T10:48:20;2.50;;;1.10;;
69240;SDS011;56352;55.750;13.198;2023-07-20T10:53:32;1.88;;;0.70;;
69240;SDS011;56352;55.750;13.198;2023-07-20T10:56:08;1.95;;;0.50;;
69240;SDS011;56352;55.750;13.198;2023-07-20T10:58:35;1.27;;;0.50;;
69240;SDS011;56352;55.750;13.198;2023-07-20T11:01:02;0.50;;;0.50;;
69240;SDS011;56352;55.750;13.198;2023-07-20T11:03:30;1.20;;;0.50;;
69240;SDS011;56352;55.750;13.198;2023-07-20T11:08:48;1.60;;;0.60;;
69240;SDS011;56352;55.750;13.198;2023-07-20T11:11:23;1.48;;;0.70;;
69240;SDS011;56352;55.750;13.198;2023-07-20T11:14:33;2.17;;;1.00;;
69240;SDS011;56352;55.750;13.198;2023-07-20T11:16:41;2.38;;;0.80;;
69240;SDS011;56352;55.750;13.198;2023-07-20T11:19:19;3.38;;;1.05;;
69240;SDS011;56352;55.750;13.198;2023-07-20T11:21:52;1.75;;;0.73;;
69240;SDS011;56352;55.750;13.198;2023-07-20T11:24:29;1.33;;;0.80;;
69240;SDS011;56352;55.750;13.198;2023-07-20T11:26:55;2.28;;;0.80;;
69240;SDS011;56352;55.750;13.198;2023-07-20T11:29:22;1.20;;;0.70;;
69240;SDS011;56352;55.750;13.198;2023-07-20T11:31:57;2.70;;;0.63;;
69240;SDS011;56352;55.750;13.198;2023-07-20T11:34:27;3.35;;;0.85;;
69240;SDS011;56352;55.750;13.198;2023-07-20T11:36:54;2.33;;;0.80;;
69240;SDS011;56352;55.750;13.198;2023-07-20T11:39:24;3.63;;;0.70;;
69240;SDS011;56352;55.750;13.198;2023-07-20T11:44:23;1.92;;;0.70;;
69240;SDS011;56352;55.750;13.198;2023-07-20T11:47:02;2.85;;;0.65;;
69240;SDS011;56352;55.750;13.198;2023-07-20T11:49:40;1.35;;;0.70;;
69240;SDS011;56352;55.750;13.198;2023-07-20T11:52:07;1.30;;;0.60;;
69240;SDS011;56352;55.750;13.198;2023-07-20T11:54:34;1.25;;;0.60;;
69240;SDS011;56352;55.750;13.198;2023-07-20T11:57:02;2.22;;;0.70;;
69240;SDS011;56352;55.750;13.198;2023-07-20T11:59:29;2.25;;;0.82;;
69240;SDS011;56352;55.750;13.198;2023-07-20T12:01:55;2.35;;;0.77;;
69240;SDS011;56352;55.750;13.198;2023-07-20T12:04:22;1.17;;;0.50;;
69240;SDS011;56352;55.750;13.198;2023-07-20T12:06:49;1.70;;;0.70;;
69240;SDS011;56352;55.750;13.198;2023-07-20T12:09:16;0.70;;;0.40;;
69240;SDS011;56352;55.750;13.198;2023-07-20T12:11:43;1.42;;;0.60;;
69240;SDS011;56352;55.750;13.198;2023-07-20T12:14:13;1.00;;;0.60;;
69240;SDS011;56352;55.750;13.198;2023-07-20T12:16:43;1.48;;;0.60;;
69240;SDS011;56352;55.750;13.198;2023-07-20T12:19:13;1.77;;;0.77;;
69240;SDS011;56352;55.750;13.198;2023-07-20T12:21:40;2.38;;;0.65;;
69240;SDS011;56352;55.750;13.198;2023-07-20T12:24:08;1.65;;;0.70;;
69240;SDS011;56352;55.750;13.198;2023-07-20T12:26:37;2.33;;;0.60;;
69240;SDS011;56352;55.750;13.198;2023-07-20T12:29:03;2.35;;;0.70;;
69240;SDS011;56352;55.750;13.198;2023-07-20T12:31:30;2.42;;;0.82;;
69240;SDS011;56352;55.750;13.198;2023-07-20T12:36:25;1.40;;;0.63;;
69240;SDS011;56352;55.750;13.198;2023-07-20T12:38:52;1.70;;;0.60;;
69240;SDS011;56352;55.750;13.198;2023-07-20T12:41:19;1.67;;;0.50;;
69240;SDS011;56352;55.750;13.198;2023-07-20T12:43:46;1.58;;;0.60;;
69240;SDS011;56352;55.750;13.198;2023-07-20T12:46:13;1.17;;;0.50;;
69240;SDS011;56352;55.750;13.198;2023-07-20T12:48:40;1.23;;;0.60;;
69240;SDS011;56352;55.750;13.198;2023-07-20T12:51:11;1.27;;;0.75;;
69240;SDS011;56352;55.750;13.198;2023-07-20T12:53:38;2.33;;;0.95;;
69240;SDS011;56352;55.750;13.198;2023-07-20T12:56:05;2.13;;;0.80;;
69240;SDS011;56352;55.750;13.198;2023-07-20T12:58:34;3.10;;;0.88;;
69240;SDS011;56352;55.750;13.198;2023-07-20T13:01:01;1.95;;;0.65;;
69240;SDS011;56352;55.750;13.198;2023-07-20T13:03:28;1.35;;;0.50;;
69240;SDS011;56352;55.750;13.198;2023-07-20T13:05:57;2.33;;;0.70;;
69240;SDS011;56352;55.750;13.198;2023-07-20T13:08:27;1.30;;;0.60;;
69240;SDS011;56352;55.750;13.198;2023-07-20T13:10:54;2.72;;;1.10;;
69240;SDS011;56352;55.750;13.198;2023-07-20T13:13:20;1.40;;;0.90;;
69240;SDS011;56352;55.750;13.198;2023-07-20T13:15:47;1.15;;;0.65;;
69240;SDS011;56352;55.750;13.198;2023-07-20T13:18:14;2.78;;;0.88;;
69240;SDS011;56352;55.750;13.198;2023-07-20T13:20:41;1.90;;;0.88;;
69240;SDS011;56352;55.750;13.198;2023-07-20T13:23:07;2.40;;;0.63;;
69240;SDS011;56352;55.750;13.198;2023-07-20T13:25:34;1.20;;;0.60;;
69240;SDS011;56352;55.750;13.198;2023-07-20T13:28:00;2.33;;;0.60;;
69240;SDS011;56352;55.750;13.198;2023-07-20T13:30:27;1.80;;;1.13;;
69240;SDS011;56352;55.750;13.198;2023-07-20T13:32:53;1.35;;;0.63;;
69240;SDS011;56352;55.750;13.198;2023-07-20T13:35:20;2.10;;;0.80;;
69240;SDS011;56352;55.750;13.198;2023-07-20T13:37:47;1.42;;;0.50;;
69240;SDS011;56352;55.750;13.198;2023-07-20T13:40:14;2.08;;;0.85;;
69240;SDS011;56352;55.750;13.198;2023-07-20T13:42:43;5.47;;;1.17;;
69240;SDS011;56352;55.750;13.198;2023-07-20T13:45:11;3.83;;;0.90;;
69240;SDS011;56352;55.750;13.198;2023-07-20T13:47:38;0.80;;;0.50;;
69240;SDS011;56352;55.750;13.198;2023-07-20T13:50:06;2.17;;;0.70;;
69240;SDS011;56352;55.750;13.198;2023-07-20T13:52:32;2.20;;;0.70;;
69240;SDS011;56352;55.750;13.198;2023-07-20T13:55:02;1.73;;;0.70;;
69240;SDS011;56352;55.750;13.198;2023-07-20T13:57:30;2.38;;;0.73;;
69240;SDS011;56352;55.750;13.198;2023-07-20T14:00:00;2.53;;;0.70;;
69240;SDS011;56352;55.750;13.198;2023-07-20T14:02:28;3.37;;;0.70;;
69240;SDS011;56352;55.750;13.198;2023-07-20T14:04:57;0.75;;;0.50;;
69240;SDS011;56352;55.750;13.198;2023-07-20T14:07:27;2.60;;;0.60;;
69240;SDS011;56352;55.750;13.198;2023-07-20T14:09:55;1.95;;;0.80;;
69240;SDS011;56352;55.750;13.198;2023-07-20T14:12:25;3.10;;;0.60;;
69240;SDS011;56352;55.750;13.198;2023-07-20T14:14:51;4.13;;;0.70;;
69240;SDS011;56352;55.750;13.198;2023-07-20T14:17:18;0.52;;;0.50;;
69240;SDS011;56352;55.750;13.198;2023-07-20T14:19:44;1.23;;;0.50;;
69240;SDS011;56352;55.750;13.198;2023-07-20T14:22:11;2.72;;;0.73;;
69240;SDS011;56352;55.750;13.198;2023-07-20T14:24:38;0.93;;;0.60;;
69240;SDS011;56352;55.750;13.198;2023-07-20T14:27:04;1.40;;;0.50;;
69240;SDS011;56352;55.750;13.198;2023-07-20T14:29:31;1.92;;;0.60;;
69240;SDS011;56352;55.750;13.198;2023-07-20T14:31:58;4.05;;;1.00;;
69240;SDS011;56352;55.750;13.198;2023-07-20T14:34:25;2.65;;;0.77;;
69240;SDS011;56352;55.750;13.198;2023-07-20T14:36:52;1.85;;;0.50;;
69240;SDS011;56352;55.750;13.198;2023-07-20T14:39:18;1.02;;;0.60;;
69240;SDS011;56352;55.750;13.198;2023-07-20T14:41:45;1.63;;;0.60;;
69240;SDS011;56352;55.750;13.198;2023-07-20T14:44:12;1.70;;;0.70;;
69240;SDS011;56352;55.750;13.198;2023-07-20T14:46:38;1.63;;;0.60;;
69240;SDS011;56352;55.750;13.198;2023-07-20T14:49:05;1.25;;;0.40;;
69240;SDS011;56352;55.750;13.198;2023-07-20T14:51:32;1.10;;;0.55;;
69240;SDS011;56352;55.750;13.198;2023-07-20T14:54:02;1.27;;;0.50;;
69240;SDS011;56352;55.750;13.198;2023-07-20T14:56:29;0.85;;;0.43;;
69240;SDS011;56352;55.750;13.198;2023-07-20T14:58:55;1.00;;;0.50;;
69240;SDS011;56352;55.750;13.198;2023-07-20T15:01:24;2.20;;;0.55;;
69240;SDS011;56352;55.750;13.198;2023-07-20T15:03:51;1.35;;;0.55;;